Flight Number: EUR2243 Duration: 1:15
Departure: Munich Int'l (EDDM) at 07:30 Distance: 393 Nm
Arrival: Roma Fiumicino (LIRF) at 08:45 Equipment: A321

Weather Information
Munchen, Germany (EDDM) 48-21N 011-47E Jan 22, 2018 - 02:50 AM EST / 2018.01.22 0750 UTC
Wind: from the E (100 degrees) at 7 MPH (6 KT):0
Visibility: 1 mile(s):0
Sky conditions: overcast Weather: light snow Temperature: 30 F (-1 C)
Windchill: 23 F (-5 C):1 Dew Point: 28 F (-2 C) Relative Humidity: 92% Pressure (altimeter): 29.85 in. Hg (1011 hPa)
ob: EDDM 220750Z 10006KT 3200 -SN FEW006 OVC024 M01/M02 Q1011 R08R/290095 R08L/////// NOSIG cycle: 8
Sunrise: 06:56 Sunset: 15:52 (UTC)

Roma Fiumicino, Italy (LIRF) 41-48N 012-14E 3M Jan 22, 2018 - 02:50 AM EST / 2018.01.22 0750 UTC
Wind: from the E (080 degrees) at 7 MPH (6 KT) (direction variable):0
Visibility: greater than 7 mile(s):0 Temperature: 44 F (7 C) Dew Point: 35 F (2 C) Relative Humidity: 70% Pressure (altimeter): 29.94 in. Hg (1014 hPa)
ob: LIRF 220750Z 08006KT 060V130 CAVOK 07/02 Q1014 NOSIG cycle: 8
Sunrise: 06:34 Sunset: 16:10 (UTC)

TAF:2018/01/22 06:25 TAF LIRF 220500Z 2206/2312 06008KT 9999 SCT030 BECMG 2207/2209 15010KT BECMG 2221/2223 09007KT

Previous Pireps for this route
Date Aircraft Flight time Fuel used Landing rate On time
2012-08-12MD-8101.47-1-220Yes
2012-10-14MD-8101.499572-308Yes
2012-12-20MD-8101.299127-304Yes
2013-01-14MD-811.1541420No
2013-01-22MD-811.139030.70No
2013-01-26B1900D02.151792-258Charter
2013-03-03MD-811.0578580No
2013-11-02A3211.17118880No
2014-05-06A3211.48160000No
2014-11-24A32101.269509-186Charter
2015-02-22B73701.238960-382Charter
2015-03-21A3211.2474580Charter
2015-04-05A32101.2310304-443Yes
2015-04-19A32101.248876-227Yes
2015-04-25A32101.217750-321Yes
2015-05-02B73701.4111534-570Charter
2015-05-07MD-811.1592780Yes
2015-05-08A32101.29-6380-210Yes
2015-05-15A32101.411741-479Yes
2015-05-21MD-811.2389570Yes
2015-12-15A32101.239937-32Charter
2016-05-21MD-8101.2710118-169Yes
2016-08-27A32101.187520-324Yes
2017-01-11B7372.1080000Charter
2017-01-13B73702.148792-6950Charter
(pireps marked green are flown by you)

Route map